sensor_id;sensor_type;location;lat;lon;timestamp;pressure;altitude;pressure_sealevel;temperature;humidity
13414;BME280;6778;48.136;11.386;2023-02-26T00:00:21;94472.78;;;1.12;83.82
13414;BME280;6778;48.136;11.386;2023-02-26T00:02:53;94476.94;;;1.13;84.05
13414;BME280;6778;48.136;11.386;2023-02-26T00:05:23;94475.25;;;1.20;84.23
13414;BME280;6778;48.136;11.386;2023-02-26T00:07:53;94477.31;;;1.10;84.98
13414;BME280;6778;48.136;11.386;2023-02-26T00:10:26;94483.97;;;1.19;84.92
13414;BME280;6778;48.136;11.386;2023-02-26T00:12:56;94480.09;;;1.08;84.69
13414;BME280;6778;48.136;11.386;2023-02-26T00:15:27;94484.06;;;1.11;83.86
13414;BME280;6778;48.136;11.386;2023-02-26T00:18:03;94493.03;;;1.00;84.50
13414;BME280;6778;48.136;11.386;2023-02-26T00:20:35;94490.81;;;1.27;82.93
13414;BME280;6778;48.136;11.386;2023-02-26T00:23:07;94494.91;;;1.21;81.70
13414;BME280;6778;48.136;11.386;2023-02-26T00:25:44;94493.41;;;1.12;82.33
13414;BME280;6778;48.136;11.386;2023-02-26T00:28:15;94496.97;;;0.96;82.87
13414;BME280;6778;48.136;11.386;2023-02-26T00:30:46;94505.84;;;0.94;83.43
13414;BME280;6778;48.136;11.386;2023-02-26T00:33:19;94499.63;;;1.03;82.86
13414;BME280;6778;48.136;11.386;2023-02-26T00:35:55;94497.78;;;0.97;83.79
13414;BME280;6778;48.136;11.386;2023-02-26T00:38:36;94512.06;;;0.85;84.44
13414;BME280;6778;48.136;11.386;2023-02-26T00:41:11;94510.09;;;0.87;84.86
13414;BME280;6778;48.136;11.386;2023-02-26T00:43:42;94511.97;;;0.93;83.70
13414;BME280;6778;48.136;11.386;2023-02-26T00:46:21;94506.72;;;0.86;84.39
13414;BME280;6778;48.136;11.386;2023-02-26T00:49:02;94503.63;;;1.05;83.59
13414;BME280;6778;48.136;11.386;2023-02-26T00:51:45;94514.91;;;0.90;82.53
13414;BME280;6778;48.136;11.386;2023-02-26T00:54:20;94511.25;;;0.69;82.93
13414;BME280;6778;48.136;11.386;2023-02-26T00:56:55;94508.59;;;0.63;83.14
13414;BME280;6778;48.136;11.386;2023-02-26T00:59:25;94507.97;;;0.75;83.19
13414;BME280;6778;48.136;11.386;2023-02-26T01:01:56;94504.94;;;0.87;82.66
13414;BME280;6778;48.136;11.386;2023-02-26T01:04:27;94507.88;;;0.69;82.56
13414;BME280;6778;48.136;11.386;2023-02-26T01:06:58;94520.31;;;0.65;83.39
13414;BME280;6778;48.136;11.386;2023-02-26T01:09:31;94512.66;;;0.72;83.27
13414;BME280;6778;48.136;11.386;2023-02-26T01:12:08;94519.00;;;0.69;83.28
13414;BME280;6778;48.136;11.386;2023-02-26T01:14:41;94515.06;;;0.59;84.04
13414;BME280;6778;48.136;11.386;2023-02-26T01:17:18;94511.06;;;0.56;84.05
13414;BME280;6778;48.136;11.386;2023-02-26T01:19:53;94523.56;;;0.59;82.88
13414;BME280;6778;48.136;11.386;2023-02-26T01:22:30;94512.19;;;0.53;83.33
13414;BME280;6778;48.136;11.386;2023-02-26T01:25:05;94521.09;;;0.66;82.74
13414;BME280;6778;48.136;11.386;2023-02-26T01:27:39;94522.84;;;0.50;82.76
13414;BME280;6778;48.136;11.386;2023-02-26T01:30:12;94522.38;;;0.47;82.74
13414;BME280;6778;48.136;11.386;2023-02-26T01:32:45;94520.19;;;0.59;82.30
13414;BME280;6778;48.136;11.386;2023-02-26T01:35:31;94524.34;;;0.45;82.16
13414;BME280;6778;48.136;11.386;2023-02-26T01:38:16;94526.41;;;0.26;83.07
13414;BME280;6778;48.136;11.386;2023-02-26T01:41:15;94525.91;;;0.31;83.06
13414;BME280;6778;48.136;11.386;2023-02-26T01:43:59;94533.81;;;0.30;82.64
13414;BME280;6778;48.136;11.386;2023-02-26T01:46:37;94535.47;;;0.22;82.75
13414;BME280;6778;48.136;11.386;2023-02-26T01:49:14;94534.91;;;0.35;82.51
13414;BME280;6778;48.136;11.386;2023-02-26T01:51:49;94541.34;;;0.31;82.27
13414;BME280;6778;48.136;11.386;2023-02-26T01:54:23;94546.50;;;0.31;82.45
13414;BME280;6778;48.136;11.386;2023-02-26T01:56:58;94538.16;;;0.29;81.89
13414;BME280;6778;48.136;11.386;2023-02-26T01:59:38;94541.75;;;0.20;82.05
13414;BME280;6778;48.136;11.386;2023-02-26T02:02:12;94543.38;;;0.21;82.96
13414;BME280;6778;48.136;11.386;2023-02-26T02:04:47;94545.31;;;0.19;82.45
13414;BME280;6778;48.136;11.386;2023-02-26T02:07:19;94546.75;;;0.21;82.62
13414;BME280;6778;48.136;11.386;2023-02-26T02:09:50;94545.31;;;0.19;82.56
13414;BME280;6778;48.136;11.386;2023-02-26T02:12:34;94540.50;;;0.16;82.59
13414;BME280;6778;48.136;11.386;2023-02-26T02:15:13;94547.25;;;0.17;82.49
13414;BME280;6778;48.136;11.386;2023-02-26T02:17:51;94550.44;;;0.19;82.86
13414;BME280;6778;48.136;11.386;2023-02-26T02:20:56;94550.00;;;0.15;82.88
13414;BME280;6778;48.136;11.386;2023-02-26T02:23:34;94555.59;;;0.19;82.27
13414;BME280;6778;48.136;11.386;2023-02-26T02:26:34;94554.88;;;0.10;83.19
13414;BME280;6778;48.136;11.386;2023-02-26T02:32:17;94561.41;;;0.21;83.04
13414;BME280;6778;48.136;11.386;2023-02-26T02:35:03;94560.97;;;0.32;82.85
13414;BME280;6778;48.136;11.386;2023-02-26T02:37:40;94565.22;;;0.25;82.24
13414;BME280;6778;48.136;11.386;2023-02-26T02:40:17;94558.59;;;0.08;82.56
13414;BME280;6778;48.136;11.386;2023-02-26T02:42:54;94566.38;;;0.22;82.55
13414;BME280;6778;48.136;11.386;2023-02-26T02:45:30;94567.47;;;0.28;81.44
13414;BME280;6778;48.136;11.386;2023-02-26T02:48:11;94564.59;;;0.23;81.12
13414;BME280;6778;48.136;11.386;2023-02-26T02:50:47;94564.47;;;0.16;81.18
13414;BME280;6778;48.136;11.386;2023-02-26T02:53:23;94568.53;;;0.11;80.66
13414;BME280;6778;48.136;11.386;2023-02-26T02:56:01;94569.81;;;0.15;80.02
13414;BME280;6778;48.136;11.386;2023-02-26T02:58:37;94569.00;;;0.14;80.50
13414;BME280;6778;48.136;11.386;2023-02-26T03:01:14;94581.09;;;0.14;79.49
13414;BME280;6778;48.136;11.386;2023-02-26T03:03:56;94580.97;;;-0.01;79.31
13414;BME280;6778;48.136;11.386;2023-02-26T03:06:30;94577.28;;;0.02;79.16
13414;BME280;6778;48.136;11.386;2023-02-26T03:09:03;94581.34;;;-0.04;79.20
13414;BME280;6778;48.136;11.386;2023-02-26T03:11:35;94583.41;;;0.01;78.32
13414;BME280;6778;48.136;11.386;2023-02-26T03:14:08;94589.19;;;0.03;78.57
13414;BME280;6778;48.136;11.386;2023-02-26T03:17:07;94596.66;;;-0.11;78.75
13414;BME280;6778;48.136;11.386;2023-02-26T03:19:58;94593.06;;;-0.02;78.38
13414;BME280;6778;48.136;11.386;2023-02-26T03:22:42;94609.47;;;-0.03;78.84
13414;BME280;6778;48.136;11.386;2023-02-26T03:25:25;94610.44;;;-0.04;79.44
13414;BME280;6778;48.136;11.386;2023-02-26T03:28:06;94612.25;;;-0.51;80.42
13414;BME280;6778;48.136;11.386;2023-02-26T03:30:45;94613.13;;;-0.20;79.80
13414;BME280;6778;48.136;11.386;2023-02-26T03:33:23;94612.19;;;-0.27;80.13
13414;BME280;6778;48.136;11.386;2023-02-26T03:36:02;94617.69;;;-0.07;78.85
13414;BME280;6778;48.136;11.386;2023-02-26T03:38:39;94623.13;;;-0.02;79.52
13414;BME280;6778;48.136;11.386;2023-02-26T03:41:17;94620.97;;;-0.21;79.19
13414;BME280;6778;48.136;11.386;2023-02-26T03:43:54;94626.97;;;-0.29;79.58
13414;BME280;6778;48.136;11.386;2023-02-26T03:46:29;94627.13;;;-0.31;80.25
13414;BME280;6778;48.136;11.386;2023-02-26T03:49:06;94623.09;;;-0.25;79.71
13414;BME280;6778;48.136;11.386;2023-02-26T03:51:44;94629.81;;;-0.16;80.00
13414;BME280;6778;48.136;11.386;2023-02-26T03:54:46;94631.56;;;-0.16;79.85
13414;BME280;6778;48.136;11.386;2023-02-26T03:57:37;94627.00;;;0.02;79.45
13414;BME280;6778;48.136;11.386;2023-02-26T04:00:19;94640.09;;;-0.16;78.63
13414;BME280;6778;48.136;11.386;2023-02-26T04:02:57;94639.38;;;-0.33;78.70
13414;BME280;6778;48.136;11.386;2023-02-26T04:05:33;94645.63;;;-0.35;78.76
13414;BME280;6778;48.136;11.386;2023-02-26T04:08:08;94647.88;;;-0.32;78.69
13414;BME280;6778;48.136;11.386;2023-02-26T04:10:43;94649.13;;;-0.28;78.85
13414;BME280;6778;48.136;11.386;2023-02-26T04:13:14;94644.25;;;-0.07;78.23
13414;BME280;6778;48.136;11.386;2023-02-26T04:15:44;94637.72;;;-0.25;77.70
13414;BME280;6778;48.136;11.386;2023-02-26T04:18:15;94648.38;;;-0.37;77.91
13414;BME280;6778;48.136;11.386;2023-02-26T04:20:45;94650.16;;;-0.37;78.15
13414;BME280;6778;48.136;11.386;2023-02-26T04:23:19;94652.75;;;-0.45;77.79
13414;BME280;6778;48.136;11.386;2023-02-26T04:25:50;94649.88;;;-0.50;78.23
13414;BME280;6778;48.136;11.386;2023-02-26T04:28:21;94649.53;;;-0.39;78.44
13414;BME280;6778;48.136;11.386;2023-02-26T04:30:51;94654.81;;;-0.41;77.95
13414;BME280;6778;48.136;11.386;2023-02-26T04:33:21;94659.97;;;-0.49;77.89
13414;BME280;6778;48.136;11.386;2023-02-26T04:35:52;94668.06;;;-0.60;78.40
13414;BME280;6778;48.136;11.386;2023-02-26T04:38:27;94662.09;;;-0.52;78.41
13414;BME280;6778;48.136;11.386;2023-02-26T04:40:58;94670.78;;;-0.62;78.38
13414;BME280;6778;48.136;11.386;2023-02-26T04:43:28;94670.78;;;-0.70;79.34
13414;BME280;6778;48.136;11.386;2023-02-26T04:46:22;94670.25;;;-0.41;78.01
13414;BME280;6778;48.136;11.386;2023-02-26T04:48:53;94672.50;;;-0.38;76.88
13414;BME280;6778;48.136;11.386;2023-02-26T04:51:25;94668.69;;;-0.58;77.02
13414;BME280;6778;48.136;11.386;2023-02-26T04:53:59;94676.78;;;-0.86;77.76
13414;BME280;6778;48.136;11.386;2023-02-26T04:56:32;94685.75;;;-0.73;77.25
13414;BME280;6778;48.136;11.386;2023-02-26T04:59:04;94679.16;;;-0.84;77.44
13414;BME280;6778;48.136;11.386;2023-02-26T05:01:35;94680.91;;;-0.52;77.91
13414;BME280;6778;48.136;11.386;2023-02-26T05:04:07;94684.78;;;-0.64;77.29
13414;BME280;6778;48.136;11.386;2023-02-26T05:06:39;94677.53;;;-0.69;76.92
13414;BME280;6778;48.136;11.386;2023-02-26T05:09:12;94679.31;;;-0.77;76.68
13414;BME280;6778;48.136;11.386;2023-02-26T05:11:43;94681.44;;;-0.97;77.35
13414;BME280;6778;48.136;11.386;2023-02-26T05:14:14;94684.63;;;-0.95;77.88
13414;BME280;6778;48.136;11.386;2023-02-26T05:16:51;94677.56;;;-0.85;77.20
13414;BME280;6778;48.136;11.386;2023-02-26T05:19:22;94683.50;;;-1.09;77.44
13414;BME280;6778;48.136;11.386;2023-02-26T05:21:53;94675.00;;;-1.18;77.35
13414;BME280;6778;48.136;11.386;2023-02-26T05:24:26;94684.00;;;-1.30;77.57
13414;BME280;6778;48.136;11.386;2023-02-26T05:26:56;94688.19;;;-1.13;77.76
13414;BME280;6778;48.136;11.386;2023-02-26T05:29:29;94686.88;;;-1.33;77.50
13414;BME280;6778;48.136;11.386;2023-02-26T05:32:01;94696.19;;;-1.48;77.89
13414;BME280;6778;48.136;11.386;2023-02-26T05:34:32;94694.25;;;-1.46;78.55
13414;BME280;6778;48.136;11.386;2023-02-26T05:37:02;94703.72;;;-1.55;77.86
13414;BME280;6778;48.136;11.386;2023-02-26T05:39:35;94704.47;;;-1.71;78.52
13414;BME280;6778;48.136;11.386;2023-02-26T05:42:07;94703.81;;;-1.73;79.12
13414;BME280;6778;48.136;11.386;2023-02-26T05:44:37;94705.38;;;-1.88;78.80
13414;BME280;6778;48.136;11.386;2023-02-26T05:47:08;94709.41;;;-1.77;79.19
13414;BME280;6778;48.136;11.386;2023-02-26T05:49:38;94718.69;;;-1.93;79.63
13414;BME280;6778;48.136;11.386;2023-02-26T05:52:08;94718.84;;;-1.94;79.24
13414;BME280;6778;48.136;11.386;2023-02-26T05:54:41;94723.47;;;-1.98;79.05
13414;BME280;6778;48.136;11.386;2023-02-26T05:57:11;94729.00;;;-2.10;80.19
13414;BME280;6778;48.136;11.386;2023-02-26T05:59:41;94733.69;;;-2.06;79.89
13414;BME280;6778;48.136;11.386;2023-02-26T06:02:11;94729.97;;;-2.11;80.05
13414;BME280;6778;48.136;11.386;2023-02-26T06:04:41;94732.69;;;-2.13;79.41
13414;BME280;6778;48.136;11.386;2023-02-26T06:07:12;94730.66;;;-2.09;79.39
13414;BME280;6778;48.136;11.386;2023-02-26T06:09:45;94732.84;;;-2.14;79.32
13414;BME280;6778;48.136;11.386;2023-02-26T06:12:15;94726.69;;;-2.30;79.76
13414;BME280;6778;48.136;11.386;2023-02-26T06:14:46;94722.09;;;-2.18;79.62
13414;BME280;6778;48.136;11.386;2023-02-26T06:17:16;94725.16;;;-2.14;79.36
13414;BME280;6778;48.136;11.386;2023-02-26T06:19:46;94738.56;;;-2.29;79.52
13414;BME280;6778;48.136;11.386;2023-02-26T06:22:16;94740.66;;;-2.24;79.36
13414;BME280;6778;48.136;11.386;2023-02-26T06:24:49;94739.19;;;-2.27;79.37
13414;BME280;6778;48.136;11.386;2023-02-26T06:27:21;94750.59;;;-2.29;79.75
13414;BME280;6778;48.136;11.386;2023-02-26T06:29:52;94763.13;;;-2.18;79.16
13414;BME280;6778;48.136;11.386;2023-02-26T06:32:22;94769.13;;;-2.35;80.35
13414;BME280;6778;48.136;11.386;2023-02-26T06:34:56;94776.75;;;-2.17;78.86
13414;BME280;6778;48.136;11.386;2023-02-26T06:37:26;94784.44;;;-2.17;78.99
13414;BME280;6778;48.136;11.386;2023-02-26T06:39:59;94797.19;;;-2.08;79.01
13414;BME280;6778;48.136;11.386;2023-02-26T06:42:30;94795.72;;;-2.10;78.34
13414;BME280;6778;48.136;11.386;2023-02-26T06:45:00;94808.69;;;-1.86;77.86
13414;BME280;6778;48.136;11.386;2023-02-26T06:47:30;94814.53;;;-1.68;76.43
13414;BME280;6778;48.136;11.386;2023-02-26T06:50:00;94825.06;;;-1.37;75.24
13414;BME280;6778;48.136;11.386;2023-02-26T06:52:32;94817.25;;;-1.27;75.03
13414;BME280;6778;48.136;11.386;2023-02-26T06:55:05;94815.06;;;-0.89;74.84
13414;BME280;6778;48.136;11.386;2023-02-26T06:57:35;94809.16;;;-0.73;75.40
13414;BME280;6778;48.136;11.386;2023-02-26T07:00:08;94814.78;;;-0.86;74.02
13414;BME280;6778;48.136;11.386;2023-02-26T07:02:39;94825.19;;;-0.96;74.02
13414;BME280;6778;48.136;11.386;2023-02-26T07:05:09;94834.03;;;-0.98;73.62
13414;BME280;6778;48.136;11.386;2023-02-26T07:07:40;94832.25;;;-1.06;73.89
13414;BME280;6778;48.136;11.386;2023-02-26T07:10:12;94843.38;;;-0.81;74.57
13414;BME280;6778;48.136;11.386;2023-02-26T07:12:46;94841.44;;;-0.79;74.75
13414;BME280;6778;48.136;11.386;2023-02-26T07:15:19;94843.22;;;-0.71;75.88
13414;BME280;6778;48.136;11.386;2023-02-26T07:17:49;94848.84;;;-0.76;74.53
13414;BME280;6778;48.136;11.386;2023-02-26T07:20:21;94848.34;;;-0.79;74.46
13414;BME280;6778;48.136;11.386;2023-02-26T07:22:52;94845.47;;;-0.76;74.82
13414;BME280;6778;48.136;11.386;2023-02-26T07:25:24;94857.31;;;-0.92;75.24
13414;BME280;6778;48.136;11.386;2023-02-26T07:27:55;94860.59;;;-0.73;74.98
13414;BME280;6778;48.136;11.386;2023-02-26T07:30:26;94856.09;;;-0.63;74.24
13414;BME280;6778;48.136;11.386;2023-02-26T07:32:57;94871.34;;;-0.70;74.00
13414;BME280;6778;48.136;11.386;2023-02-26T07:35:27;94872.66;;;-0.41;73.47
13414;BME280;6778;48.136;11.386;2023-02-26T07:37:57;94871.22;;;-0.36;73.32
13414;BME280;6778;48.136;11.386;2023-02-26T07:40:31;94873.47;;;-0.33;73.12
13414;BME280;6778;48.136;11.386;2023-02-26T07:43:01;94865.28;;;-0.20;73.03
13414;BME280;6778;48.136;11.386;2023-02-26T07:45:31;94861.88;;;0.04;72.22
13414;BME280;6778;48.136;11.386;2023-02-26T07:48:03;94865.91;;;-0.10;71.97
13414;BME280;6778;48.136;11.386;2023-02-26T07:50:34;94863.81;;;-0.06;72.50
13414;BME280;6778;48.136;11.386;2023-02-26T07:53:04;94870.91;;;-0.16;71.50
13414;BME280;6778;48.136;11.386;2023-02-26T07:55:40;94862.50;;;0.06;71.30
13414;BME280;6778;48.136;11.386;2023-02-26T07:58:14;94867.66;;;0.06;71.36
13414;BME280;6778;48.136;11.386;2023-02-26T08:00:46;94876.50;;;0.12;71.05
13414;BME280;6778;48.136;11.386;2023-02-26T08:03:18;94876.34;;;0.21;70.38
13414;BME280;6778;48.136;11.386;2023-02-26T08:05:49;94870.06;;;0.16;70.78
13414;BME280;6778;48.136;11.386;2023-02-26T08:08:21;94878.44;;;0.73;72.52
13414;BME280;6778;48.136;11.386;2023-02-26T08:10:54;94873.34;;;0.96;72.05
13414;BME280;6778;48.136;11.386;2023-02-26T08:13:24;94873.03;;;1.30;71.87
13414;BME280;6778;48.136;11.386;2023-02-26T08:15:55;94877.84;;;1.56;68.06
13414;BME280;6778;48.136;11.386;2023-02-26T08:18:25;94884.63;;;1.57;67.34
13414;BME280;6778;48.136;11.386;2023-02-26T08:20:55;94881.84;;;1.82;66.76
13414;BME280;6778;48.136;11.386;2023-02-26T08:23:25;94892.97;;;1.82;67.08
13414;BME280;6778;48.136;11.386;2023-02-26T08:26:03;94892.97;;;2.05;66.51
13414;BME280;6778;48.136;11.386;2023-02-26T08:28:34;94894.59;;;1.83;65.77
13414;BME280;6778;48.136;11.386;2023-02-26T08:31:05;94886.72;;;2.00;65.92
13414;BME280;6778;48.136;11.386;2023-02-26T08:33:36;94892.75;;;1.92;66.94
13414;BME280;6778;48.136;11.386;2023-02-26T08:36:07;94893.78;;;1.60;66.49
13414;BME280;6778;48.136;11.386;2023-02-26T08:38:37;94902.63;;;1.66;65.73
13414;BME280;6778;48.136;11.386;2023-02-26T08:41:10;94913.25;;;1.71;66.31
13414;BME280;6778;48.136;11.386;2023-02-26T08:43:40;94920.75;;;1.26;65.86
13414;BME280;6778;48.136;11.386;2023-02-26T08:46:10;94929.81;;;0.75;67.92
13414;BME280;6778;48.136;11.386;2023-02-26T08:48:41;94930.31;;;0.70;68.42
13414;BME280;6778;48.136;11.386;2023-02-26T08:51:12;94928.31;;;2.05;65.65
13414;BME280;6778;48.136;11.386;2023-02-26T08:53:42;94928.91;;;0.51;67.75
13414;BME280;6778;48.136;11.386;2023-02-26T08:56:16;94927.25;;;1.14;67.52
13414;BME280;6778;48.136;11.386;2023-02-26T08:58:46;94927.41;;;1.13;67.91
13414;BME280;6778;48.136;11.386;2023-02-26T09:01:16;94937.97;;;0.95;67.96
13414;BME280;6778;48.136;11.386;2023-02-26T09:03:46;94934.16;;;0.74;68.93
13414;BME280;6778;48.136;11.386;2023-02-26T09:06:16;94935.13;;;0.81;67.83
13414;BME280;6778;48.136;11.386;2023-02-26T09:08:46;94936.84;;;0.97;69.09
13414;BME280;6778;48.136;11.386;2023-02-26T09:11:19;94946.25;;;0.74;69.35
13414;BME280;6778;48.136;11.386;2023-02-26T09:13:50;94964.94;;;0.60;70.39
13414;BME280;6778;48.136;11.386;2023-02-26T09:16:20;94975.63;;;0.24;69.79
13414;BME280;6778;48.136;11.386;2023-02-26T09:18:50;94966.94;;;0.09;70.71
13414;BME280;6778;48.136;11.386;2023-02-26T09:21:21;94964.03;;;0.36;70.73
13414;BME280;6778;48.136;11.386;2023-02-26T09:23:51;94965.66;;;0.21;69.98
13414;BME280;6778;48.136;11.386;2023-02-26T09:26:23;94963.72;;;0.15;70.67
13414;BME280;6778;48.136;11.386;2023-02-26T09:28:54;94973.38;;;0.37;71.11
13414;BME280;6778;48.136;11.386;2023-02-26T09:31:24;94986.56;;;0.26;71.45
13414;BME280;6778;48.136;11.386;2023-02-26T09:33:55;94979.63;;;0.26;71.63
13414;BME280;6778;48.136;11.386;2023-02-26T09:36:27;94984.97;;;0.41;71.08
13414;BME280;6778;48.136;11.386;2023-02-26T09:38:58;94986.56;;;0.18;71.44
13414;BME280;6778;48.136;11.386;2023-02-26T09:41:35;94987.03;;;-0.03;71.72
13414;BME280;6778;48.136;11.386;2023-02-26T09:44:15;94995.59;;;0.30;71.98
13414;BME280;6778;48.136;11.386;2023-02-26T09:47:00;94998.47;;;0.03;72.54
13414;BME280;6778;48.136;11.386;2023-02-26T09:49:46;94996.38;;;0.06;72.74
13414;BME280;6778;48.136;11.386;2023-02-26T09:52:23;94992.34;;;0.04;72.37
13414;BME280;6778;48.136;11.386;2023-02-26T09:54:58;94986.72;;;0.24;72.23
13414;BME280;6778;48.136;11.386;2023-02-26T09:57:36;94992.19;;;0.46;72.62
13414;BME280;6778;48.136;11.386;2023-02-26T10:00:21;95003.78;;;0.42;72.44
13414;BME280;6778;48.136;11.386;2023-02-26T10:03:02;95001.53;;;0.31;73.51
13414;BME280;6778;48.136;11.386;2023-02-26T10:05:40;95002.50;;;0.30;73.85
13414;BME280;6778;48.136;11.386;2023-02-26T10:08:15;94998.00;;;0.48;73.36
13414;BME280;6778;48.136;11.386;2023-02-26T10:10:49;94999.75;;;0.31;74.18
13414;BME280;6778;48.136;11.386;2023-02-26T10:13:35;95005.72;;;0.32;74.17
13414;BME280;6778;48.136;11.386;2023-02-26T10:16:27;95007.50;;;0.23;75.21
13414;BME280;6778;48.136;11.386;2023-02-26T10:19:06;95007.00;;;0.36;74.79
13414;BME280;6778;48.136;11.386;2023-02-26T10:21:46;95002.97;;;0.33;75.82
13414;BME280;6778;48.136;11.386;2023-02-26T10:24:23;95003.59;;;0.60;74.68
13414;BME280;6778;48.136;11.386;2023-02-26T10:27:02;94991.06;;;0.57;74.60
13414;BME280;6778;48.136;11.386;2023-02-26T10:29:46;94994.28;;;0.42;74.34
13414;BME280;6778;48.136;11.386;2023-02-26T10:32:27;94992.16;;;0.78;74.52
13414;BME280;6778;48.136;11.386;2023-02-26T10:35:02;94987.03;;;1.18;73.47
13414;BME280;6778;48.136;11.386;2023-02-26T10:37:46;94985.50;;;1.40;72.62
13414;BME280;6778;48.136;11.386;2023-02-26T10:40:23;94985.72;;;2.38;68.10
13414;BME280;6778;48.136;11.386;2023-02-26T10:42:58;94991.91;;;2.29;67.09
13414;BME280;6778;48.136;11.386;2023-02-26T10:45:56;94985.72;;;2.38;67.03
13414;BME280;6778;48.136;11.386;2023-02-26T10:48:55;94980.38;;;2.39;72.09
13414;BME280;6778;48.136;11.386;2023-02-26T10:51:35;94974.88;;;4.18;65.46
13414;BME280;6778;48.136;11.386;2023-02-26T10:54:15;94968.91;;;3.31;65.16
13414;BME280;6778;48.136;11.386;2023-02-26T10:56:46;94966.94;;;2.44;68.48
13414;BME280;6778;48.136;11.386;2023-02-26T10:59:17;94963.06;;;2.92;67.22
13414;BME280;6778;48.136;11.386;2023-02-26T11:01:50;94963.56;;;2.73;67.17
13414;BME280;6778;48.136;11.386;2023-02-26T11:04:23;94971.00;;;2.15;67.46
13414;BME280;6778;48.136;11.386;2023-02-26T11:06:57;94968.69;;;1.75;68.29
13414;BME280;6778;48.136;11.386;2023-02-26T11:09:33;94965.13;;;1.76;68.23
13414;BME280;6778;48.136;11.386;2023-02-26T11:12:11;94954.03;;;1.98;68.81
13414;BME280;6778;48.136;11.386;2023-02-26T11:14:43;94964.38;;;1.98;68.03
13414;BME280;6778;48.136;11.386;2023-02-26T11:17:19;94963.53;;;1.75;70.23
13414;BME280;6778;48.136;11.386;2023-02-26T11:19:58;94973.00;;;1.59;70.85
13414;BME280;6778;48.136;11.386;2023-02-26T11:22:33;94972.94;;;1.68;71.07
13414;BME280;6778;48.136;11.386;2023-02-26T11:25:06;94984.69;;;1.39;71.73
13414;BME280;6778;48.136;11.386;2023-02-26T11:27:37;94993.34;;;1.85;70.84
13414;BME280;6778;48.136;11.386;2023-02-26T11:30:15;94995.41;;;1.59;67.91
13414;BME280;6778;48.136;11.386;2023-02-26T11:32:52;95001.00;;;1.71;68.97
13414;BME280;6778;48.136;11.386;2023-02-26T11:35:24;95004.09;;;1.66;69.43
13414;BME280;6778;48.136;11.386;2023-02-26T11:37:59;95005.47;;;1.46;69.58
13414;BME280;6778;48.136;11.386;2023-02-26T11:40:35;95003.78;;;1.61;69.63
13414;BME280;6778;48.136;11.386;2023-02-26T11:43:11;95010.91;;;1.59;69.55
13414;BME280;6778;48.136;11.386;2023-02-26T11:45:47;95004.88;;;1.67;69.38
13414;BME280;6778;48.136;11.386;2023-02-26T11:48:26;95014.13;;;2.15;67.30
13414;BME280;6778;48.136;11.386;2023-02-26T11:50:59;95002.44;;;2.65;67.85
13414;BME280;6778;48.136;11.386;2023-02-26T11:53:36;95004.94;;;2.12;67.21
13414;BME280;6778;48.136;11.386;2023-02-26T11:56:12;95017.47;;;1.70;68.58
13414;BME280;6778;48.136;11.386;2023-02-26T11:58:51;95022.91;;;2.06;69.37
13414;BME280;6778;48.136;11.386;2023-02-26T12:01:26;95006.66;;;2.20;69.39
13414;BME280;6778;48.136;11.386;2023-02-26T12:04:01;95007.34;;;2.14;69.78
13414;BME280;6778;48.136;11.386;2023-02-26T12:06:31;95010.78;;;1.52;71.34
13414;BME280;6778;48.136;11.386;2023-02-26T12:09:02;95001.72;;;1.56;71.78
13414;BME280;6778;48.136;11.386;2023-02-26T12:14:46;95015.59;;;1.16;73.02
13414;BME280;6778;48.136;11.386;2023-02-26T12:17:33;95019.03;;;0.92;73.49
13414;BME280;6778;48.136;11.386;2023-02-26T12:20:18;95018.25;;;0.75;73.98
13414;BME280;6778;48.136;11.386;2023-02-26T12:23:00;95024.66;;;0.96;74.78
13414;BME280;6778;48.136;11.386;2023-02-26T12:28:51;95024.38;;;1.38;73.36
13414;BME280;6778;48.136;11.386;2023-02-26T12:31:48;95025.09;;;1.63;73.18
13414;BME280;6778;48.136;11.386;2023-02-26T12:34:36;95016.91;;;1.82;70.24
13414;BME280;6778;48.136;11.386;2023-02-26T12:37:33;95006.53;;;1.59;69.89
13414;BME280;6778;48.136;11.386;2023-02-26T12:40:24;95009.13;;;1.90;68.72
13414;BME280;6778;48.136;11.386;2023-02-26T12:43:05;94994.59;;;2.35;69.65
13414;BME280;6778;48.136;11.386;2023-02-26T12:45:44;94997.44;;;2.63;67.32
13414;BME280;6778;48.136;11.386;2023-02-26T12:48:44;94992.66;;;3.05;66.69
13414;BME280;6778;48.136;11.386;2023-02-26T12:51:28;94989.44;;;2.73;64.85
13414;BME280;6778;48.136;11.386;2023-02-26T12:54:17;94985.09;;;3.03;63.96
13414;BME280;6778;48.136;11.386;2023-02-26T12:57:04;94982.06;;;2.85;64.62
13414;BME280;6778;48.136;11.386;2023-02-26T13:03:15;94978.19;;;2.28;63.26
13414;BME280;6778;48.136;11.386;2023-02-26T13:06:07;94982.31;;;2.90;65.50
13414;BME280;6778;48.136;11.386;2023-02-26T13:08:51;94971.47;;;2.57;62.91
13414;BME280;6778;48.136;11.386;2023-02-26T13:11:45;94979.78;;;2.29;63.50
13414;BME280;6778;48.136;11.386;2023-02-26T13:14:36;94980.41;;;2.69;62.12
13414;BME280;6778;48.136;11.386;2023-02-26T13:17:20;94992.25;;;2.63;61.01
13414;BME280;6778;48.136;11.386;2023-02-26T13:19:56;94995.50;;;2.80;61.05
13414;BME280;6778;48.136;11.386;2023-02-26T13:22:34;95011.88;;;2.35;60.41
13414;BME280;6778;48.136;11.386;2023-02-26T13:25:18;95002.06;;;2.53;63.22
13414;BME280;6778;48.136;11.386;2023-02-26T13:27:58;95027.56;;;2.10;66.87
13414;BME280;6778;48.136;11.386;2023-02-26T13:30:36;95016.78;;;1.76;70.05
13414;BME280;6778;48.136;11.386;2023-02-26T13:33:17;95004.00;;;1.51;73.80
13414;BME280;6778;48.136;11.386;2023-02-26T13:35:51;95017.88;;;0.95;74.60
13414;BME280;6778;48.136;11.386;2023-02-26T13:38:32;95019.22;;;0.58;75.13
13414;BME280;6778;48.136;11.386;2023-02-26T13:41:11;95021.31;;;0.71;76.69
13414;BME280;6778;48.136;11.386;2023-02-26T13:44:11;95010.50;;;0.84;75.69
13414;BME280;6778;48.136;11.386;2023-02-26T13:47:10;95012.22;;;1.07;75.83
13414;BME280;6778;48.136;11.386;2023-02-26T13:49:54;95011.41;;;1.07;76.33
13414;BME280;6778;48.136;11.386;2023-02-26T13:52:28;95007.66;;;1.26;77.20
13414;BME280;6778;48.136;11.386;2023-02-26T13:55:02;95009.81;;;1.84;74.54
13414;BME280;6778;48.136;11.386;2023-02-26T13:57:36;95008.56;;;2.03;72.79
13414;BME280;6778;48.136;11.386;2023-02-26T14:00:26;95008.03;;;1.85;70.50
13414;BME280;6778;48.136;11.386;2023-02-26T14:03:10;95011.13;;;1.49;68.91
13414;BME280;6778;48.136;11.386;2023-02-26T14:08:55;95013.13;;;1.31;68.84